sensor_id;sensor_type;location;lat;lon;timestamp;P1;durP1;ratioP1;P2;durP2;ratioP2
70929;SDS011;58588;48.102;19.682;2022-08-19T00:02:49;14.18;;;8.98;;
70929;SDS011;58588;48.102;19.682;2022-08-19T00:05:52;15.70;;;9.60;;
70929;SDS011;58588;48.102;19.682;2022-08-19T00:08:54;20.97;;;9.50;;
70929;SDS011;58588;48.102;19.682;2022-08-19T00:11:58;14.90;;;9.63;;
70929;SDS011;58588;48.102;19.682;2022-08-19T00:15:01;12.93;;;8.63;;
70929;SDS011;58588;48.102;19.682;2022-08-19T00:18:03;15.90;;;9.05;;
70929;SDS011;58588;48.102;19.682;2022-08-19T00:21:06;13.85;;;8.98;;
70929;SDS011;58588;48.102;19.682;2022-08-19T00:24:10;15.23;;;9.00;;
70929;SDS011;58588;48.102;19.682;2022-08-19T00:27:13;16.55;;;9.85;;
70929;SDS011;58588;48.102;19.682;2022-08-19T00:30:16;13.93;;;9.05;;
70929;SDS011;58588;48.102;19.682;2022-08-19T00:33:18;13.00;;;8.52;;
70929;SDS011;58588;48.102;19.682;2022-08-19T00:36:22;15.05;;;8.80;;
70929;SDS011;58588;48.102;19.682;2022-08-19T00:39:24;19.93;;;9.27;;
70929;SDS011;58588;48.102;19.682;2022-08-19T00:42:26;15.45;;;8.85;;
70929;SDS011;58588;48.102;19.682;2022-08-19T00:45:29;15.20;;;9.07;;
70929;SDS011;58588;48.102;19.682;2022-08-19T00:48:33;15.13;;;8.43;;
70929;SDS011;58588;48.102;19.682;2022-08-19T00:51:38;16.42;;;9.40;;
70929;SDS011;58588;48.102;19.682;2022-08-19T00:54:40;14.70;;;8.87;;
70929;SDS011;58588;48.102;19.682;2022-08-19T00:57:46;16.27;;;8.77;;
70929;SDS011;58588;48.102;19.682;2022-08-19T01:00:51;16.13;;;9.50;;
70929;SDS011;58588;48.102;19.682;2022-08-19T01:03:53;13.68;;;8.95;;
70929;SDS011;58588;48.102;19.682;2022-08-19T01:06:57;14.07;;;8.90;;
70929;SDS011;58588;48.102;19.682;2022-08-19T01:10:00;16.63;;;9.50;;
70929;SDS011;58588;48.102;19.682;2022-08-19T01:13:03;17.08;;;9.20;;
70929;SDS011;58588;48.102;19.682;2022-08-19T01:16:07;17.23;;;9.65;;
70929;SDS011;58588;48.102;19.682;2022-08-19T01:19:12;13.23;;;8.82;;
70929;SDS011;58588;48.102;19.682;2022-08-19T01:22:27;16.30;;;9.40;;
70929;SDS011;58588;48.102;19.682;2022-08-19T01:25:34;16.03;;;9.73;;
70929;SDS011;58588;48.102;19.682;2022-08-19T01:28:41;15.68;;;9.18;;
70929;SDS011;58588;48.102;19.682;2022-08-19T01:31:45;17.50;;;9.23;;
70929;SDS011;58588;48.102;19.682;2022-08-19T01:34:47;16.45;;;9.32;;
70929;SDS011;58588;48.102;19.682;2022-08-19T01:37:51;16.08;;;9.75;;
70929;SDS011;58588;48.102;19.682;2022-08-19T01:40:54;15.30;;;9.13;;
70929;SDS011;58588;48.102;19.682;2022-08-19T01:43:56;17.65;;;10.52;;
70929;SDS011;58588;48.102;19.682;2022-08-19T01:46:58;16.45;;;9.38;;
70929;SDS011;58588;48.102;19.682;2022-08-19T01:50:00;14.13;;;9.30;;
70929;SDS011;58588;48.102;19.682;2022-08-19T01:53:05;16.77;;;9.70;;
70929;SDS011;58588;48.102;19.682;2022-08-19T01:56:08;22.13;;;11.13;;
70929;SDS011;58588;48.102;19.682;2022-08-19T01:59:11;17.98;;;10.02;;
70929;SDS011;58588;48.102;19.682;2022-08-19T02:02:17;13.40;;;9.00;;
70929;SDS011;58588;48.102;19.682;2022-08-19T02:05:19;15.13;;;9.32;;
70929;SDS011;58588;48.102;19.682;2022-08-19T02:08:23;15.82;;;9.70;;
70929;SDS011;58588;48.102;19.682;2022-08-19T02:11:27;16.07;;;9.60;;
70929;SDS011;58588;48.102;19.682;2022-08-19T02:14:33;15.18;;;9.32;;
70929;SDS011;58588;48.102;19.682;2022-08-19T02:17:35;17.40;;;9.90;;
70929;SDS011;58588;48.102;19.682;2022-08-19T02:20:37;15.30;;;9.95;;
70929;SDS011;58588;48.102;19.682;2022-08-19T02:23:41;17.60;;;9.77;;
70929;SDS011;58588;48.102;19.682;2022-08-19T02:26:43;15.03;;;9.10;;
70929;SDS011;58588;48.102;19.682;2022-08-19T02:29:45;14.68;;;9.43;;
70929;SDS011;58588;48.102;19.682;2022-08-19T02:32:48;15.25;;;9.00;;
70929;SDS011;58588;48.102;19.682;2022-08-19T02:35:50;15.75;;;9.75;;
70929;SDS011;58588;48.102;19.682;2022-08-19T02:38:53;17.77;;;9.98;;
70929;SDS011;58588;48.102;19.682;2022-08-19T02:41:56;16.30;;;9.80;;
70929;SDS011;58588;48.102;19.682;2022-08-19T02:44:59;15.75;;;9.95;;
70929;SDS011;58588;48.102;19.682;2022-08-19T02:48:01;16.45;;;9.85;;
70929;SDS011;58588;48.102;19.682;2022-08-19T02:51:07;16.13;;;10.40;;
70929;SDS011;58588;48.102;19.682;2022-08-19T02:54:11;16.08;;;9.90;;
70929;SDS011;58588;48.102;19.682;2022-08-19T02:57:14;17.83;;;9.33;;
70929;SDS011;58588;48.102;19.682;2022-08-19T03:00:16;15.30;;;9.52;;
70929;SDS011;58588;48.102;19.682;2022-08-19T03:03:19;15.25;;;9.95;;
70929;SDS011;58588;48.102;19.682;2022-08-19T03:06:21;15.75;;;10.05;;
70929;SDS011;58588;48.102;19.682;2022-08-19T03:09:25;14.00;;;9.18;;
70929;SDS011;58588;48.102;19.682;2022-08-19T03:12:27;14.53;;;9.60;;
70929;SDS011;58588;48.102;19.682;2022-08-19T03:15:29;14.57;;;8.80;;
70929;SDS011;58588;48.102;19.682;2022-08-19T03:18:31;14.48;;;9.20;;
70929;SDS011;58588;48.102;19.682;2022-08-19T03:21:33;14.93;;;9.25;;
70929;SDS011;58588;48.102;19.682;2022-08-19T03:24:37;19.88;;;9.90;;
70929;SDS011;58588;48.102;19.682;2022-08-19T03:27:40;16.20;;;9.60;;
70929;SDS011;58588;48.102;19.682;2022-08-19T03:30:53;18.17;;;9.80;;
70929;SDS011;58588;48.102;19.682;2022-08-19T03:33:57;17.95;;;9.60;;
70929;SDS011;58588;48.102;19.682;2022-08-19T03:37:01;15.20;;;9.82;;
70929;SDS011;58588;48.102;19.682;2022-08-19T03:40:07;16.33;;;9.40;;
70929;SDS011;58588;48.102;19.682;2022-08-19T03:43:10;21.90;;;9.90;;
70929;SDS011;58588;48.102;19.682;2022-08-19T03:46:13;18.73;;;10.30;;
70929;SDS011;58588;48.102;19.682;2022-08-19T03:49:17;15.52;;;9.75;;
70929;SDS011;58588;48.102;19.682;2022-08-19T03:52:20;15.27;;;9.45;;
70929;SDS011;58588;48.102;19.682;2022-08-19T03:55:23;14.60;;;9.50;;
70929;SDS011;58588;48.102;19.682;2022-08-19T03:58:25;15.20;;;9.67;;
70929;SDS011;58588;48.102;19.682;2022-08-19T04:01:29;18.00;;;9.75;;
70929;SDS011;58588;48.102;19.682;2022-08-19T04:04:30;18.15;;;10.20;;
70929;SDS011;58588;48.102;19.682;2022-08-19T04:07:32;18.48;;;9.63;;
70929;SDS011;58588;48.102;19.682;2022-08-19T04:10:37;16.33;;;9.68;;
70929;SDS011;58588;48.102;19.682;2022-08-19T04:13:40;14.53;;;9.17;;
70929;SDS011;58588;48.102;19.682;2022-08-19T04:16:43;24.33;;;9.90;;
70929;SDS011;58588;48.102;19.682;2022-08-19T04:19:46;23.73;;;10.27;;
70929;SDS011;58588;48.102;19.682;2022-08-19T04:22:48;17.23;;;10.15;;
70929;SDS011;58588;48.102;19.682;2022-08-19T04:25:51;16.30;;;9.93;;
70929;SDS011;58588;48.102;19.682;2022-08-19T04:28:53;19.20;;;9.73;;
70929;SDS011;58588;48.102;19.682;2022-08-19T04:31:56;16.48;;;9.85;;
70929;SDS011;58588;48.102;19.682;2022-08-19T04:34:59;16.52;;;9.38;;
70929;SDS011;58588;48.102;19.682;2022-08-19T04:38:01;18.10;;;9.80;;
70929;SDS011;58588;48.102;19.682;2022-08-19T04:41:05;18.55;;;10.30;;
70929;SDS011;58588;48.102;19.682;2022-08-19T04:44:24;19.23;;;10.03;;
70929;SDS011;58588;48.102;19.682;2022-08-19T04:47:27;16.85;;;9.77;;
70929;SDS011;58588;48.102;19.682;2022-08-19T04:50:30;16.10;;;9.57;;
70929;SDS011;58588;48.102;19.682;2022-08-19T04:53:33;17.08;;;10.30;;
70929;SDS011;58588;48.102;19.682;2022-08-19T04:56:38;16.67;;;11.25;;
70929;SDS011;58588;48.102;19.682;2022-08-19T04:59:40;15.10;;;9.87;;
70929;SDS011;58588;48.102;19.682;2022-08-19T05:02:43;18.08;;;9.50;;
70929;SDS011;58588;48.102;19.682;2022-08-19T05:05:45;18.20;;;9.82;;
70929;SDS011;58588;48.102;19.682;2022-08-19T05:08:49;21.30;;;9.75;;
70929;SDS011;58588;48.102;19.682;2022-08-19T05:11:53;14.30;;;10.00;;
70929;SDS011;58588;48.102;19.682;2022-08-19T05:14:55;18.73;;;10.30;;
70929;SDS011;58588;48.102;19.682;2022-08-19T05:17:57;15.55;;;10.23;;
70929;SDS011;58588;48.102;19.682;2022-08-19T05:21:16;21.05;;;9.90;;
70929;SDS011;58588;48.102;19.682;2022-08-19T05:24:37;20.38;;;10.10;;
70929;SDS011;58588;48.102;19.682;2022-08-19T05:27:41;16.33;;;9.40;;
70929;SDS011;58588;48.102;19.682;2022-08-19T05:30:43;16.83;;;9.50;;
70929;SDS011;58588;48.102;19.682;2022-08-19T05:33:46;20.08;;;9.80;;
70929;SDS011;58588;48.102;19.682;2022-08-19T05:36:49;16.52;;;9.93;;
70929;SDS011;58588;48.102;19.682;2022-08-19T05:39:53;18.30;;;9.63;;
70929;SDS011;58588;48.102;19.682;2022-08-19T05:42:57;14.45;;;9.20;;
70929;SDS011;58588;48.102;19.682;2022-08-19T05:45:59;15.67;;;10.00;;
70929;SDS011;58588;48.102;19.682;2022-08-19T05:49:01;17.40;;;9.77;;
70929;SDS011;58588;48.102;19.682;2022-08-19T05:52:04;15.73;;;9.00;;
70929;SDS011;58588;48.102;19.682;2022-08-19T05:55:08;16.35;;;9.43;;
70929;SDS011;58588;48.102;19.682;2022-08-19T05:58:12;15.05;;;9.45;;
70929;SDS011;58588;48.102;19.682;2022-08-19T06:01:14;15.07;;;9.30;;
70929;SDS011;58588;48.102;19.682;2022-08-19T06:04:18;15.90;;;9.25;;
70929;SDS011;58588;48.102;19.682;2022-08-19T06:07:21;15.32;;;8.88;;
70929;SDS011;58588;48.102;19.682;2022-08-19T06:10:24;13.55;;;8.40;;
70929;SDS011;58588;48.102;19.682;2022-08-19T06:13:28;17.00;;;8.52;;
70929;SDS011;58588;48.102;19.682;2022-08-19T06:16:30;13.50;;;8.43;;
70929;SDS011;58588;48.102;19.682;2022-08-19T06:19:35;18.13;;;8.98;;
70929;SDS011;58588;48.102;19.682;2022-08-19T06:22:38;17.00;;;8.68;;
70929;SDS011;58588;48.102;19.682;2022-08-19T06:25:40;13.93;;;8.48;;
70929;SDS011;58588;48.102;19.682;2022-08-19T06:28:44;13.40;;;8.60;;
70929;SDS011;58588;48.102;19.682;2022-08-19T06:31:50;16.20;;;8.90;;
70929;SDS011;58588;48.102;19.682;2022-08-19T06:34:53;12.45;;;8.00;;
70929;SDS011;58588;48.102;19.682;2022-08-19T06:37:55;13.52;;;8.48;;
70929;SDS011;58588;48.102;19.682;2022-08-19T06:40:59;16.25;;;8.20;;
70929;SDS011;58588;48.102;19.682;2022-08-19T06:44:04;14.57;;;8.35;;
70929;SDS011;58588;48.102;19.682;2022-08-19T06:47:07;13.23;;;8.43;;
70929;SDS011;58588;48.102;19.682;2022-08-19T06:50:10;13.30;;;8.13;;
70929;SDS011;58588;48.102;19.682;2022-08-19T06:53:13;12.30;;;7.70;;
70929;SDS011;58588;48.102;19.682;2022-08-19T06:56:16;13.75;;;8.25;;
70929;SDS011;58588;48.102;19.682;2022-08-19T06:59:22;14.20;;;7.97;;
70929;SDS011;58588;48.102;19.682;2022-08-19T07:02:27;14.83;;;7.80;;
70929;SDS011;58588;48.102;19.682;2022-08-19T07:05:29;13.50;;;8.02;;
70929;SDS011;58588;48.102;19.682;2022-08-19T07:08:31;14.30;;;7.45;;
70929;SDS011;58588;48.102;19.682;2022-08-19T07:11:34;11.32;;;6.82;;
70929;SDS011;58588;48.102;19.682;2022-08-19T07:14:39;14.85;;;7.68;;
70929;SDS011;58588;48.102;19.682;2022-08-19T07:17:41;15.77;;;7.37;;
70929;SDS011;58588;48.102;19.682;2022-08-19T07:20:43;15.13;;;7.45;;
70929;SDS011;58588;48.102;19.682;2022-08-19T07:23:45;13.48;;;7.85;;
70929;SDS011;58588;48.102;19.682;2022-08-19T07:26:48;19.92;;;7.60;;
70929;SDS011;58588;48.102;19.682;2022-08-19T07:29:52;11.77;;;7.40;;
70929;SDS011;58588;48.102;19.682;2022-08-19T07:32:54;12.07;;;7.13;;
70929;SDS011;58588;48.102;19.682;2022-08-19T07:35:56;10.82;;;7.18;;
70929;SDS011;58588;48.102;19.682;2022-08-19T07:38:59;13.15;;;7.13;;
70929;SDS011;58588;48.102;19.682;2022-08-19T07:42:05;13.57;;;7.22;;
70929;SDS011;58588;48.102;19.682;2022-08-19T07:45:11;14.15;;;7.47;;
70929;SDS011;58588;48.102;19.682;2022-08-19T07:48:13;12.37;;;7.07;;
70929;SDS011;58588;48.102;19.682;2022-08-19T07:51:17;11.43;;;6.90;;
70929;SDS011;58588;48.102;19.682;2022-08-19T07:54:22;14.75;;;7.22;;
70929;SDS011;58588;48.102;19.682;2022-08-19T07:57:25;11.45;;;7.00;;
70929;SDS011;58588;48.102;19.682;2022-08-19T08:00:29;12.73;;;6.78;;
70929;SDS011;58588;48.102;19.682;2022-08-19T08:03:32;11.60;;;6.83;;
70929;SDS011;58588;48.102;19.682;2022-08-19T08:06:51;13.40;;;6.93;;
70929;SDS011;58588;48.102;19.682;2022-08-19T08:10:10;12.65;;;7.03;;
70929;SDS011;58588;48.102;19.682;2022-08-19T08:13:12;9.43;;;5.88;;
70929;SDS011;58588;48.102;19.682;2022-08-19T08:16:15;10.32;;;6.13;;
70929;SDS011;58588;48.102;19.682;2022-08-19T08:19:17;12.23;;;5.63;;
70929;SDS011;58588;48.102;19.682;2022-08-19T08:22:21;12.85;;;6.30;;
70929;SDS011;58588;48.102;19.682;2022-08-19T08:25:42;10.68;;;5.82;;
70929;SDS011;58588;48.102;19.682;2022-08-19T08:28:43;11.48;;;5.93;;
70929;SDS011;58588;48.102;19.682;2022-08-19T08:31:49;10.13;;;5.90;;
70929;SDS011;58588;48.102;19.682;2022-08-19T08:34:52;10.07;;;5.00;;
70929;SDS011;58588;48.102;19.682;2022-08-19T08:37:54;10.32;;;4.93;;
70929;SDS011;58588;48.102;19.682;2022-08-19T08:40:57;8.88;;;4.75;;
70929;SDS011;58588;48.102;19.682;2022-08-19T08:44:11;8.82;;;4.70;;
70929;SDS011;58588;48.102;19.682;2022-08-19T08:47:19;13.38;;;4.78;;
70929;SDS011;58588;48.102;19.682;2022-08-19T08:50:24;9.73;;;4.60;;
70929;SDS011;58588;48.102;19.682;2022-08-19T08:53:31;9.32;;;4.88;;
70929;SDS011;58588;48.102;19.682;2022-08-19T08:56:34;9.15;;;4.20;;
70929;SDS011;58588;48.102;19.682;2022-08-19T08:59:37;8.70;;;4.40;;
70929;SDS011;58588;48.102;19.682;2022-08-19T09:02:43;7.95;;;5.00;;
70929;SDS011;58588;48.102;19.682;2022-08-19T09:05:47;11.20;;;4.63;;
70929;SDS011;58588;48.102;19.682;2022-08-19T09:09:01;8.02;;;4.68;;
70929;SDS011;58588;48.102;19.682;2022-08-19T09:12:06;10.13;;;4.80;;
70929;SDS011;58588;48.102;19.682;2022-08-19T09:15:14;10.02;;;5.43;;
70929;SDS011;58588;48.102;19.682;2022-08-19T09:18:19;7.68;;;4.43;;
70929;SDS011;58588;48.102;19.682;2022-08-19T09:21:22;8.83;;;4.90;;
70929;SDS011;58588;48.102;19.682;2022-08-19T09:24:25;10.43;;;4.60;;
70929;SDS011;58588;48.102;19.682;2022-08-19T09:27:27;10.07;;;4.85;;
70929;SDS011;58588;48.102;19.682;2022-08-19T09:30:30;8.05;;;4.38;;
70929;SDS011;58588;48.102;19.682;2022-08-19T09:33:35;8.98;;;5.22;;
70929;SDS011;58588;48.102;19.682;2022-08-19T09:36:38;8.47;;;4.73;;
70929;SDS011;58588;48.102;19.682;2022-08-19T09:39:40;9.20;;;4.97;;
70929;SDS011;58588;48.102;19.682;2022-08-19T09:42:42;9.02;;;4.68;;
70929;SDS011;58588;48.102;19.682;2022-08-19T09:45:46;7.97;;;4.50;;
70929;SDS011;58588;48.102;19.682;2022-08-19T09:48:50;9.40;;;4.90;;
70929;SDS011;58588;48.102;19.682;2022-08-19T09:51:52;8.70;;;4.53;;
70929;SDS011;58588;48.102;19.682;2022-08-19T09:54:56;7.45;;;4.78;;
70929;SDS011;58588;48.102;19.682;2022-08-19T09:57:59;11.95;;;5.65;;
70929;SDS011;58588;48.102;19.682;2022-08-19T10:01:02;9.43;;;5.00;;
70929;SDS011;58588;48.102;19.682;2022-08-19T10:04:06;11.00;;;5.70;;
70929;SDS011;58588;48.102;19.682;2022-08-19T10:07:09;15.90;;;5.90;;
70929;SDS011;58588;48.102;19.682;2022-08-19T10:10:11;9.73;;;5.72;;
70929;SDS011;58588;48.102;19.682;2022-08-19T10:13:14;10.70;;;5.40;;
70929;SDS011;58588;48.102;19.682;2022-08-19T10:16:19;9.82;;;5.38;;
70929;SDS011;58588;48.102;19.682;2022-08-19T10:19:24;10.50;;;5.55;;
70929;SDS011;58588;48.102;19.682;2022-08-19T10:22:26;9.33;;;5.60;;
70929;SDS011;58588;48.102;19.682;2022-08-19T10:25:28;9.35;;;5.50;;
70929;SDS011;58588;48.102;19.682;2022-08-19T10:28:30;10.40;;;5.50;;
70929;SDS011;58588;48.102;19.682;2022-08-19T10:31:32;9.30;;;5.60;;
70929;SDS011;58588;48.102;19.682;2022-08-19T10:34:37;10.55;;;5.95;;
70929;SDS011;58588;48.102;19.682;2022-08-19T10:37:39;9.83;;;5.53;;
70929;SDS011;58588;48.102;19.682;2022-08-19T10:40:41;11.75;;;5.68;;
70929;SDS011;58588;48.102;19.682;2022-08-19T10:43:43;10.40;;;5.32;;
70929;SDS011;58588;48.102;19.682;2022-08-19T10:46:45;8.65;;;5.07;;
70929;SDS011;58588;48.102;19.682;2022-08-19T10:49:49;8.23;;;5.10;;
70929;SDS011;58588;48.102;19.682;2022-08-19T10:53:09;8.27;;;5.50;;
70929;SDS011;58588;48.102;19.682;2022-08-19T10:56:11;12.05;;;5.60;;
70929;SDS011;58588;48.102;19.682;2022-08-19T10:59:31;14.85;;;5.38;;
70929;SDS011;58588;48.102;19.682;2022-08-19T11:02:33;11.52;;;5.82;;
70929;SDS011;58588;48.102;19.682;2022-08-19T11:05:36;9.18;;;5.43;;
70929;SDS011;58588;48.102;19.682;2022-08-19T11:08:38;9.77;;;5.63;;
70929;SDS011;58588;48.102;19.682;2022-08-19T11:11:40;9.00;;;5.38;;
70929;SDS011;58588;48.102;19.682;2022-08-19T11:14:43;9.15;;;5.20;;
70929;SDS011;58588;48.102;19.682;2022-08-19T11:17:45;10.27;;;6.05;;
70929;SDS011;58588;48.102;19.682;2022-08-19T11:20:48;11.10;;;5.50;;
70929;SDS011;58588;48.102;19.682;2022-08-19T11:23:51;9.87;;;5.77;;
70929;SDS011;58588;48.102;19.682;2022-08-19T11:27:02;9.63;;;5.57;;
70929;SDS011;58588;48.102;19.682;2022-08-19T11:30:06;12.93;;;5.63;;
70929;SDS011;58588;48.102;19.682;2022-08-19T11:33:09;9.88;;;5.53;;
70929;SDS011;58588;48.102;19.682;2022-08-19T11:36:13;10.98;;;5.60;;
70929;SDS011;58588;48.102;19.682;2022-08-19T11:39:16;8.27;;;5.30;;
70929;SDS011;58588;48.102;19.682;2022-08-19T11:42:20;10.00;;;5.70;;
70929;SDS011;58588;48.102;19.682;2022-08-19T11:45:39;9.77;;;5.50;;
70929;SDS011;58588;48.102;19.682;2022-08-19T11:48:41;8.93;;;5.22;;
70929;SDS011;58588;48.102;19.682;2022-08-19T11:51:45;11.18;;;5.38;;
70929;SDS011;58588;48.102;19.682;2022-08-19T11:54:49;9.00;;;5.23;;
70929;SDS011;58588;48.102;19.682;2022-08-19T11:57:51;8.07;;;5.32;;
70929;SDS011;58588;48.102;19.682;2022-08-19T12:00:53;14.30;;;6.20;;
70929;SDS011;58588;48.102;19.682;2022-08-19T12:03:56;12.55;;;5.85;;
70929;SDS011;58588;48.102;19.682;2022-08-19T12:06:59;9.93;;;5.80;;
70929;SDS011;58588;48.102;19.682;2022-08-19T12:10:02;13.53;;;5.87;;
70929;SDS011;58588;48.102;19.682;2022-08-19T12:13:04;9.38;;;5.90;;
70929;SDS011;58588;48.102;19.682;2022-08-19T12:16:07;9.95;;;5.68;;
70929;SDS011;58588;48.102;19.682;2022-08-19T12:19:10;11.98;;;5.75;;
70929;SDS011;58588;48.102;19.682;2022-08-19T12:22:14;9.35;;;5.70;;
70929;SDS011;58588;48.102;19.682;2022-08-19T12:25:16;8.93;;;5.70;;
70929;SDS011;58588;48.102;19.682;2022-08-19T12:28:19;11.02;;;6.03;;
70929;SDS011;58588;48.102;19.682;2022-08-19T12:31:22;11.35;;;6.20;;
70929;SDS011;58588;48.102;19.682;2022-08-19T12:34:24;9.80;;;5.68;;
70929;SDS011;58588;48.102;19.682;2022-08-19T12:37:27;11.77;;;6.07;;
70929;SDS011;58588;48.102;19.682;2022-08-19T12:40:32;12.47;;;6.07;;
70929;SDS011;58588;48.102;19.682;2022-08-19T12:43:34;9.98;;;6.20;;
70929;SDS011;58588;48.102;19.682;2022-08-19T12:46:36;9.13;;;5.63;;
70929;SDS011;58588;48.102;19.682;2022-08-19T12:49:38;14.02;;;6.07;;
70929;SDS011;58588;48.102;19.682;2022-08-19T12:52:42;11.30;;;6.15;;
70929;SDS011;58588;48.102;19.682;2022-08-19T12:55:44;13.03;;;5.90;;
70929;SDS011;58588;48.102;19.682;2022-08-19T12:58:46;11.07;;;6.10;;
70929;SDS011;58588;48.102;19.682;2022-08-19T13:01:48;11.43;;;6.50;;
70929;SDS011;58588;48.102;19.682;2022-08-19T13:04:50;12.43;;;6.20;;
70929;SDS011;58588;48.102;19.682;2022-08-19T13:07:54;20.75;;;11.98;;
70929;SDS011;58588;48.102;19.682;2022-08-19T13:10:57;226.13;;;162.83;;
70929;SDS011;58588;48.102;19.682;2022-08-19T13:14:00;225.07;;;150.63;;
70929;SDS011;58588;48.102;19.682;2022-08-19T13:17:03;264.67;;;64.75;;
70929;SDS011;58588;48.102;19.682;2022-08-19T13:20:08;1132.28;;;324.52;;
70929;SDS011;58588;48.102;19.682;2022-08-19T13:23:13;993.42;;;241.60;;
70929;SDS011;58588;48.102;19.682;2022-08-19T13:26:15;31.27;;;10.13;;
70929;SDS011;58588;48.102;19.682;2022-08-19T13:29:17;21.27;;;7.55;;
70929;SDS011;58588;48.102;19.682;2022-08-19T13:32:36;15.50;;;7.78;;
70929;SDS011;58588;48.102;19.682;2022-08-19T13:35:56;61.33;;;42.75;;
70929;SDS011;58588;48.102;19.682;2022-08-19T13:39:02;85.65;;;59.38;;
70929;SDS011;58588;48.102;19.682;2022-08-19T13:42:05;30.17;;;18.07;;
70929;SDS011;58588;48.102;19.682;2022-08-19T13:45:08;16.65;;;9.98;;
70929;SDS011;58588;48.102;19.682;2022-08-19T13:48:10;12.48;;;7.13;;
70929;SDS011;58588;48.102;19.682;2022-08-19T13:51:12;64.40;;;15.00;;
70929;SDS011;58588;48.102;19.682;2022-08-19T13:54:17;22.92;;;7.07;;
70929;SDS011;58588;48.102;19.682;2022-08-19T13:57:20;13.67;;;6.60;;
70929;SDS011;58588;48.102;19.682;2022-08-19T14:00:22;21.67;;;8.15;;
70929;SDS011;58588;48.102;19.682;2022-08-19T14:03:26;12.18;;;6.30;;
70929;SDS011;58588;48.102;19.682;2022-08-19T14:06:28;138.35;;;27.52;;
70929;SDS011;58588;48.102;19.682;2022-08-19T14:09:32;18.50;;;7.18;;
70929;SDS011;58588;48.102;19.682;2022-08-19T14:12:35;12.67;;;5.37;;
70929;SDS011;58588;48.102;19.682;2022-08-19T14:15:37;11.55;;;5.97;;
70929;SDS011;58588;48.102;19.682;2022-08-19T14:18:39;12.80;;;5.50;;
70929;SDS011;58588;48.102;19.682;2022-08-19T14:21:41;10.38;;;5.85;;
70929;SDS011;58588;48.102;19.682;2022-08-19T14:24:45;11.43;;;5.82;;
70929;SDS011;58588;48.102;19.682;2022-08-19T14:27:48;12.03;;;5.80;;
70929;SDS011;58588;48.102;19.682;2022-08-19T14:30:50;11.68;;;5.85;;
70929;SDS011;58588;48.102;19.682;2022-08-19T14:33:52;9.95;;;5.65;;
70929;SDS011;58588;48.102;19.682;2022-08-19T14:36:54;11.38;;;5.63;;
70929;SDS011;58588;48.102;19.682;2022-08-19T14:39:58;12.02;;;5.68;;
70929;SDS011;58588;48.102;19.682;2022-08-19T14:43:01;10.50;;;5.57;;
70929;SDS011;58588;48.102;19.682;2022-08-19T14:46:05;10.10;;;5.80;;
70929;SDS011;58588;48.102;19.682;2022-08-19T14:49:08;12.63;;;5.70;;
70929;SDS011;58588;48.102;19.682;2022-08-19T14:52:10;11.68;;;5.22;;
70929;SDS011;58588;48.102;19.682;2022-08-19T14:55:13;9.13;;;5.50;;
70929;SDS011;58588;48.102;19.682;2022-08-19T14:58:16;11.57;;;5.60;;
70929;SDS011;58588;48.102;19.682;2022-08-19T15:01:20;11.70;;;5.75;;
70929;SDS011;58588;48.102;19.682;2022-08-19T15:04:23;11.10;;;5.65;;
70929;SDS011;58588;48.102;19.682;2022-08-19T15:07:25;10.40;;;5.70;;
70929;SDS011;58588;48.102;19.682;2022-08-19T15:10:29;76.45;;;8.73;;
70929;SDS011;58588;48.102;19.682;2022-08-19T15:13:31;21.23;;;7.63;;
70929;SDS011;58588;48.102;19.682;2022-08-19T15:16:33;49.72;;;10.57;;
70929;SDS011;58588;48.102;19.682;2022-08-19T15:19:35;12.20;;;5.40;;
70929;SDS011;58588;48.102;19.682;2022-08-19T15:22:37;45.58;;;16.00;;
70929;SDS011;58588;48.102;19.682;2022-08-19T15:25:41;22.00;;;7.30;;
70929;SDS011;58588;48.102;19.682;2022-08-19T15:28:44;18.57;;;5.87;;
70929;SDS011;58588;48.102;19.682;2022-08-19T15:31:46;15.38;;;6.20;;
70929;SDS011;58588;48.102;19.682;2022-08-19T15:34:48;15.88;;;5.03;;
70929;SDS011;58588;48.102;19.682;2022-08-19T15:37:50;12.70;;;5.30;;
70929;SDS011;58588;48.102;19.682;2022-08-19T15:40:54;11.10;;;4.68;;
70929;SDS011;58588;48.102;19.682;2022-08-19T15:44:17;9.67;;;4.73;;
70929;SDS011;58588;48.102;19.682;2022-08-19T15:47:21;13.05;;;5.13;;
70929;SDS011;58588;48.102;19.682;2022-08-19T15:50:24;13.02;;;5.07;;
70929;SDS011;58588;48.102;19.682;2022-08-19T15:53:26;15.45;;;5.07;;
70929;SDS011;58588;48.102;19.682;2022-08-19T15:56:30;15.63;;;5.30;;
70929;SDS011;58588;48.102;19.682;2022-08-19T16:00:00;16.20;;;4.57;;
70929;SDS011;58588;48.102;19.682;2022-08-19T16:03:20;16.85;;;5.25;;
70929;SDS011;58588;48.102;19.682;2022-08-19T16:06:39;17.40;;;5.57;;
70929;SDS011;58588;48.102;19.682;2022-08-19T16:09:42;16.95;;;5.40;;
70929;SDS011;58588;48.102;19.682;2022-08-19T16:12:45;23.42;;;5.50;;
70929;SDS011;58588;48.102;19.682;2022-08-19T16:15:47;25.33;;;5.10;;
70929;SDS011;58588;48.102;19.682;2022-08-19T16:18:50;16.02;;;4.35;;
70929;SDS011;58588;48.102;19.682;2022-08-19T16:21:53;13.18;;;4.50;;
70929;SDS011;58588;48.102;19.682;2022-08-19T16:24:56;15.10;;;4.55;;
70929;SDS011;58588;48.102;19.682;2022-08-19T16:28:00;14.73;;;4.38;;
70929;SDS011;58588;48.102;19.682;2022-08-19T16:31:04;18.13;;;4.30;;
70929;SDS011;58588;48.102;19.682;2022-08-19T16:34:06;19.92;;;3.80;;
70929;SDS011;58588;48.102;19.682;2022-08-19T16:37:08;16.92;;;3.80;;
70929;SDS011;58588;48.102;19.682;2022-08-19T16:40:11;17.60;;;3.80;;
70929;SDS011;58588;48.102;19.682;2022-08-19T16:43:16;17.25;;;4.20;;
70929;SDS011;58588;48.102;19.682;2022-08-19T16:46:18;16.97;;;4.13;;
70929;SDS011;58588;48.102;19.682;2022-08-19T16:49:21;17.08;;;4.10;;
70929;SDS011;58588;48.102;19.682;2022-08-19T16:52:24;17.38;;;4.25;;
70929;SDS011;58588;48.102;19.682;2022-08-19T16:55:26;15.68;;;4.10;;
70929;SDS011;58588;48.102;19.682;2022-08-19T16:58:30;17.02;;;4.63;;
70929;SDS011;58588;48.102;19.682;2022-08-19T17:01:33;34.77;;;4.60;;
70929;SDS011;58588;48.102;19.682;2022-08-19T17:04:35;17.30;;;4.38;;
70929;SDS011;58588;48.102;19.682;2022-08-19T17:07:38;27.15;;;9.75;;
70929;SDS011;58588;48.102;19.682;2022-08-19T17:10:39;25.85;;;13.13;;
70929;SDS011;58588;48.102;19.682;2022-08-19T17:13:43;21.95;;;8.00;;
70929;SDS011;58588;48.102;19.682;2022-08-19T17:16:45;19.47;;;5.10;;
70929;SDS011;58588;48.102;19.682;2022-08-19T17:19:47;18.27;;;4.70;;
70929;SDS011;58588;48.102;19.682;2022-08-19T17:22:49;13.23;;;4.75;;
70929;SDS011;58588;48.102;19.682;2022-08-19T17:25:51;14.32;;;4.82;;
70929;SDS011;58588;48.102;19.682;2022-08-19T17:28:55;14.43;;;4.90;;
70929;SDS011;58588;48.102;19.682;2022-08-19T17:31:58;22.90;;;4.90;;
70929;SDS011;58588;48.102;19.682;2022-08-19T17:35:00;13.95;;;5.35;;
70929;SDS011;58588;48.102;19.682;2022-08-19T17:38:03;22.95;;;5.03;;
70929;SDS011;58588;48.102;19.682;2022-08-19T17:41:07;25.73;;;7.13;;
70929;SDS011;58588;48.102;19.682;2022-08-19T17:44:10;17.65;;;4.70;;
70929;SDS011;58588;48.102;19.682;2022-08-19T17:47:12;34.53;;;5.30;;
70929;SDS011;58588;48.102;19.682;2022-08-19T17:50:14;24.33;;;5.22;;
70929;SDS011;58588;48.102;19.682;2022-08-19T17:53:16;13.90;;;3.95;;
70929;SDS011;58588;48.102;19.682;2022-08-19T17:56:18;13.95;;;4.00;;